Time;durP1;ratioP1;P1;durP2;ratioP2;P2;SDS_P1;SDS_P2;PMS_P1;PMS_P2;Temp;Humidity;BMP_temperature;BMP_pressure;BME280_temperature;BME280_humidity;BME280_pressure;Samples;Min_cycle;Max_cycle;Signal;HPM_P1;HPM_P2
2022/10/30 00:00:35;;;;;;;12.20;6.67;;;;;;;13.78;100.00;99399.42;1700659;83;21051;-70
2022/10/30 00:03:01;;;;;;;16.32;7.42;;;;;;;13.76;100.00;99395.60;1709763;84;21098;-69
2022/10/30 00:05:28;;;;;;;12.03;6.22;;;;;;;13.78;100.00;99412.52;1710391;83;21054;-68
2022/10/30 00:07:55;;;;;;;10.08;6.20;;;;;;;13.80;100.00;99416.33;1704491;83;21090;-69
2022/10/30 00:10:22;;;;;;;13.85;6.87;;;;;;;13.78;100.00;99419.94;1699226;83;21020;-69
2022/10/30 00:12:50;;;;;;;12.60;6.50;;;;;;;13.76;100.00;99421.59;1697021;82;21717;-69
2022/10/30 00:15:17;;;;;;;11.03;6.25;;;;;;;13.74;100.00;99427.12;1694398;83;21060;-69
2022/10/30 00:17:43;;;;;;;13.32;7.17;;;;;;;13.72;100.00;99430.14;1641150;86;21420;-71
2022/10/30 00:20:10;;;;;;;;;;;;;;;13.69;100.00;99425.27;1680993;83;21023;-69
2022/10/30 00:22:36;;;;;;;12.23;6.90;;;;;;;13.68;100.00;99423.64;1676762;84;20155;-70
2022/10/30 00:25:04;;;;;;;10.50;6.72;;;;;;;13.59;100.00;99419.98;1673844;84;21562;-67
2022/10/30 00:27:31;;;;;;;13.68;6.45;;;;;;;13.57;100.00;99416.71;1677086;84;21150;-68
2022/10/30 00:29:57;;;;;;;12.30;6.28;;;;;;;13.58;100.00;99416.16;1666751;84;21525;-69
2022/10/30 00:32:25;;;;;;;12.60;5.97;;;;;;;13.61;100.00;99425.12;1674542;84;21093;-70
2022/10/30 00:34:52;;;;;;;12.88;5.87;;;;;;;13.63;100.00;99414.17;1673661;84;21113;-69
2022/10/30 00:37:19;;;;;;;9.98;6.37;;;;;;;13.60;100.00;99412.03;1667167;84;21615;-70
2022/10/30 00:39:45;;;;;;;8.25;5.80;;;;;;;13.59;100.00;99412.33;1666881;84;21067;-70
2022/10/30 00:42:14;;;;;;;11.90;6.40;;;;;;;13.61;100.00;99408.72;1675695;84;21076;-69
2022/10/30 00:44:47;;;;;;;10.43;5.95;;;;;;;13.62;100.00;99397.50;1670807;84;21044;-69
2022/10/30 00:47:19;;;;;;;8.53;5.90;;;;;;;13.63;100.00;99390.92;1675700;84;21044;-69
2022/10/30 00:49:51;;;;;;;13.50;6.40;;;;;;;13.60;100.00;99395.62;1672697;85;21051;-70
2022/10/30 00:52:18;;;;;;;10.08;5.80;;;;;;;13.56;100.00;99406.09;1665789;85;20971;-70
2022/10/30 00:54:45;;;;;;;10.55;5.75;;;;;;;13.53;100.00;99405.33;1681216;84;20987;-71
2022/10/30 00:57:12;;;;;;;10.60;6.78;;;;;;;13.56;100.00;99397.89;1676357;84;20971;-70
2022/10/30 00:59:39;;;;;;;12.10;5.67;;;;;;;13.57;100.00;99396.78;1672701;84;20997;-67
2022/10/30 01:02:06;;;;;;;11.93;5.83;;;;;;;13.58;100.00;99406.03;1673060;84;21023;-70
2022/10/30 01:04:33;;;;;;;10.10;5.78;;;;;;;13.57;100.00;99401.67;1674032;84;21020;-67
2022/10/30 01:07:08;;;;;;;7.97;5.70;;;;;;;13.58;100.00;99403.85;1670380;84;20976;-69
2022/10/30 01:09:37;;;;;;;11.45;5.87;;;;;;;13.56;100.00;99409.64;1676664;84;21063;-72
2022/10/30 01:12:04;;;;;;;11.20;5.55;;;;;;;13.52;100.00;99405.06;1670256;85;20991;-70
2022/10/30 01:14:30;;;;;;;10.38;5.60;;;;;;;13.53;100.00;99403.95;1639658;85;21134;-70
2022/10/30 01:17:12;;;;;;;;;;;;;;;13.54;100.00;99395.44;1676584;84;21455;-70
2022/10/30 01:20:26;;;;;;;11.75;5.55;;;;;;;13.53;100.00;99396.56;1688291;83;20208;-70
2022/10/30 01:23:19;;;;;;;9.38;5.37;;;;;;;13.48;100.00;99386.25;1704489;83;21150;-69
2022/10/30 01:26:24;;;;;;;9.73;5.17;;;;;;;13.48;100.00;99380.23;1697578;83;21011;-68
2022/10/30 01:29:23;;;;;;;13.88;6.10;;;;;;;13.48;100.00;99375.31;1690695;83;21111;-70
2022/10/30 01:32:17;;;;;;;12.53;5.78;;;;;;;13.45;100.00;99361.14;1688899;83;20992;-70
2022/10/30 01:35:11;;;;;;;11.12;5.30;;;;;;;13.41;100.00;99375.70;1705884;83;20988;-69
2022/10/30 01:38:05;;;;;;;11.75;5.17;;;;;;;13.39;100.00;99373.84;1695008;83;21051;-67
2022/10/30 01:40:32;;;;;;;10.25;5.30;;;;;;;13.39;100.00;99375.98;1702707;83;20993;-68
2022/10/30 01:42:59;;;;;;;8.28;5.00;;;;;;;13.39;100.00;99381.45;1706422;83;21222;-68
2022/10/30 01:45:41;;;;;;;14.28;5.33;;;;;;;13.41;100.00;99392.92;1705073;83;20975;-70
2022/10/30 01:48:41;;;;;;;11.50;5.85;;;;;;;13.42;100.00;99395.11;1706823;82;21072;-70
2022/10/30 01:51:16;;;;;;;11.63;5.42;;;;;;;13.41;100.00;99390.19;1696525;83;20987;-70
2022/10/30 01:54:12;;;;;;;12.33;5.28;;;;;;;13.40;100.00;99388.56;1708835;83;21071;-69
2022/10/30 01:57:18;;;;;;;10.85;5.55;;;;;;;13.39;100.00;99386.92;1688780;84;20991;-69
2022/10/30 01:59:55;;;;;;;11.33;5.25;;;;;;;13.37;100.00;99396.00;1692336;83;21023;-67
2022/10/30 02:02:22;;;;;;;8.15;5.05;;;;;;;13.35;100.00;99388.66;1709033;82;20965;-70
2022/10/30 02:04:49;;;;;;;11.57;5.15;;;;;;;13.35;100.00;99397.41;1706724;83;21011;-70
2022/10/30 02:07:15;;;;;;;10.63;5.40;;;;;;;13.34;100.00;99384.30;1708502;82;21578;-67
2022/10/30 02:09:45;;;;;;;10.23;4.97;;;;;;;13.35;100.00;99390.58;1701797;83;21534;-70
2022/10/30 02:12:13;;;;;;;12.68;5.40;;;;;;;13.34;100.00;99401.25;1705322;83;21063;-68
2022/10/30 02:14:44;;;;;;;12.73;5.70;;;;;;;13.33;100.00;99406.45;1707528;83;21578;-70
2022/10/30 02:17:12;;;;;;;10.18;5.12;;;;;;;13.33;100.00;99399.06;1709723;82;20986;-67
2022/10/30 02:19:38;;;;;;;;;;;;;;;13.34;100.00;99403.98;1703141;83;21095;-67
2022/10/30 02:22:04;;;;;;;9.20;4.90;;;;;;;13.33;100.00;99395.52;1719448;82;20578;-70
2022/10/30 02:24:31;;;;;;;13.08;5.20;;;;;;;13.28;100.00;99395.06;1723286;83;21046;-68
2022/10/30 02:26:59;;;;;;;8.75;4.28;;;;;;;13.30;100.00;99407.05;1703273;83;20976;-67
2022/10/30 02:29:25;;;;;;;;;;;;;;;13.28;100.00;99408.73;1702872;82;21062;-69
2022/10/30 02:31:52;;;;;;;8.83;4.95;;;;;;;13.22;100.00;99415.36;1720055;82;20123;-70
2022/10/30 02:34:18;;;;;;;;;;;;;;;13.11;100.00;99417.98;1662183;86;21095;-70
2022/10/30 02:36:44;;;;;;;9.70;4.70;;;;;;;13.12;100.00;99416.88;1657721;86;20523;-71
2022/10/30 02:39:11;;;;;;;9.43;4.90;;;;;;;13.08;100.00;99431.39;1673720;84;21055;-70
2022/10/30 02:41:38;;;;;;;12.37;4.78;;;;;;;13.07;100.00;99430.61;1662886;85;21951;-70
2022/10/30 02:44:09;;;;;;;;;;;;;;;13.06;100.00;99424.88;1664595;85;21076;-70
2022/10/30 02:46:33;;;;;;;11.18;4.62;;;;;;;13.05;100.00;99427.34;1646458;86;20132;-70
2022/10/30 02:49:00;;;;;;;12.33;4.65;;;;;;;13.00;100.00;99429.34;1671631;85;21665;-71
2022/10/30 02:51:27;;;;;;;12.58;5.10;;;;;;;13.00;100.00;99434.81;1672454;85;21011;-70
2022/10/30 02:53:54;;;;;;;14.18;4.70;;;;;;;12.98;100.00;99434.55;1673311;84;21352;-70
2022/10/30 02:56:20;;;;;;;;;;;;;;;12.97;100.00;99436.19;1676719;85;21035;-70
2022/10/30 02:58:46;;;;;;;9.40;4.58;;;;;;;12.98;100.00;99432.36;1651148;86;20377;-70
2022/10/30 03:01:15;;;;;;;;;;;;;;;12.91;100.00;99426.45;1674802;85;21529;-69
2022/10/30 03:03:42;;;;;;;8.70;4.72;;;;;;;12.90;100.00;99429.73;1673688;84;20420;-70
2022/10/30 03:06:10;;;;;;;9.10;4.67;;;;;;;12.86;100.00;99429.23;1673954;85;21016;-70
2022/10/30 03:08:38;;;;;;;9.35;4.90;;;;;;;12.87;100.00;99423.49;1667810;85;21055;-70
2022/10/30 03:11:07;;;;;;;11.20;4.97;;;;;;;12.87;100.00;99427.59;1673412;84;21503;-68
2022/10/30 03:13:35;;;;;;;13.62;5.20;;;;;;;12.86;100.00;99425.14;1668767;85;21127;-69
2022/10/30 03:16:09;;;;;;;;;;;;;;;12.88;100.00;99428.41;1682010;85;21051;-70
2022/10/30 03:18:36;;;;;;;9.48;4.67;;;;;;;12.90;100.00;99424.27;1674943;83;20106;-68
2022/10/30 03:21:07;;;;;;;8.55;4.60;;;;;;;12.86;100.00;99421.86;1660871;84;21496;-69
2022/10/30 03:23:35;;;;;;;8.33;4.70;;;;;;;12.88;100.00;99423.77;1661968;84;21584;-69
2022/10/30 03:26:01;;;;;;;;;;;;;;;12.88;100.00;99426.49;1661541;84;20996;-70
2022/10/30 03:28:29;;;;;;;11.53;4.90;;;;;;;12.91;100.00;99430.00;1630177;87;20118;-70
2022/10/30 03:31:09;;;;;;;9.65;4.90;;;;;;;12.86;100.00;99436.06;1650902;86;21034;-70
2022/10/30 03:33:35;;;;;;;10.63;5.30;;;;;;;12.87;100.00;99432.23;1647392;85;21091;-70
2022/10/30 03:36:03;;;;;;;10.55;4.95;;;;;;;12.87;100.00;99433.05;1695250;83;21031;-70
2022/10/30 03:38:30;;;;;;;10.58;4.78;;;;;;;12.86;100.00;99433.34;1696096;82;21119;-70
2022/10/30 03:40:57;;;;;;;10.13;4.97;;;;;;;12.87;100.00;99437.70;1702382;83;21483;-70
2022/10/30 03:43:24;;;;;;;7.25;4.42;;;;;;;12.87;100.00;99428.14;1708651;83;21031;-69
2022/10/30 03:45:53;;;;;;;9.08;4.35;;;;;;;12.86;100.00;99430.60;1712499;83;21467;-69
2022/10/30 03:48:26;;;;;;;8.90;4.65;;;;;;;12.88;100.00;99427.86;1706302;83;21119;-68
2022/10/30 03:50:53;;;;;;;10.08;4.53;;;;;;;12.90;100.00;99442.57;1689622;83;21459;-69
2022/10/30 03:53:20;;;;;;;8.98;4.17;;;;;;;12.93;100.00;99435.97;1692927;83;21194;-71
2022/10/30 03:55:47;;;;;;;9.20;4.33;;;;;;;12.93;100.00;99435.97;1700642;83;21032;-69
2022/10/30 03:58:13;;;;;;;7.70;4.00;;;;;;;12.88;100.00;99436.05;1702513;83;21047;-67
2022/10/30 04:00:40;;;;;;;7.05;3.72;;;;;;;12.89;100.00;99432.77;1710624;83;21005;-68
2022/10/30 04:03:06;;;;;;;;;;;;;;;12.92;100.00;99428.90;1703114;82;21124;-69
2022/10/30 04:05:33;;;;;;;8.50;4.30;;;;;;;12.93;100.00;99433.23;1705228;83;20511;-69
2022/10/30 04:08:06;;;;;;;7.45;3.70;;;;;;;12.84;100.00;99435.56;1683495;84;21611;-69
2022/10/30 04:10:34;;;;;;;9.60;3.80;;;;;;;12.81;100.00;99423.31;1704928;83;20976;-69
2022/10/30 04:13:05;;;;;;;7.65;3.42;;;;;;;12.85;100.00;99426.27;1689333;83;22225;-67
2022/10/30 04:15:33;;;;;;;9.68;4.05;;;;;;;12.90;100.00;99426.18;1701717;83;20997;-67
2022/10/30 04:18:00;;;;;;;10.48;3.95;;;;;;;12.88;100.00;99428.41;1704614;83;21027;-69
2022/10/30 04:20:27;;;;;;;6.08;3.25;;;;;;;12.86;100.00;99418.31;1705336;83;21359;-66
2022/10/30 04:23:01;;;;;;;;;;;;;;;12.89;100.00;99415.02;1702905;83;21031;-69
2022/10/30 04:25:29;;;;;;;8.55;3.42;;;;;;;12.95;100.00;99415.20;1707784;83;20140;-67
2022/10/30 04:27:56;;;;;;;10.40;3.30;;;;;;;12.89;100.00;99415.02;1708263;82;21889;-66
2022/10/30 04:30:25;;;;;;;7.10;3.33;;;;;;;12.88;100.00;99421.58;1709913;83;21089;-67
2022/10/30 04:32:54;;;;;;;7.65;3.05;;;;;;;12.87;100.00;99416.66;1701140;82;21039;-69
2022/10/30 04:35:24;;;;;;;10.23;3.40;;;;;;;12.94;100.00;99419.84;1706803;83;21015;-68
2022/10/30 04:37:55;;;;;;;9.48;3.55;;;;;;;12.95;100.00;99419.30;1688985;84;21945;-67
2022/10/30 04:40:23;;;;;;;7.37;3.17;;;;;;;12.91;100.00;99419.07;1708616;83;21041;-67
2022/10/30 04:42:51;;;;;;;8.40;2.80;;;;;;;12.86;100.00;99409.56;1711375;83;21055;-67
2022/10/30 04:45:18;;;;;;;5.50;2.95;;;;;;;12.89;100.00;99419.12;1698758;83;21020;-68
2022/10/30 04:47:44;;;;;;;;;;;;;;;12.94;100.00;99423.13;1708230;82;21034;-70
2022/10/30 04:50:11;;;;;;;8.13;3.72;;;;;;;12.91;100.00;99430.55;1708249;83;20406;-68
2022/10/30 04:52:38;;;;;;;9.35;3.33;;;;;;;12.81;100.00;99422.49;1685344;84;21136;-68
2022/10/30 04:55:07;;;;;;;10.60;3.27;;;;;;;12.80;100.00;99432.60;1687432;83;21016;-69
2022/10/30 04:57:35;;;;;;;7.33;3.10;;;;;;;12.85;100.00;99434.47;1703880;82;21061;-70
2022/10/30 05:00:04;;;;;;;8.23;3.05;;;;;;;12.92;100.00;99432.19;1694847;83;20995;-70
2022/10/30 05:02:35;;;;;;;9.95;3.70;;;;;;;12.90;100.00;99433.83;1702843;83;21119;-69
2022/10/30 05:05:02;;;;;;;10.58;3.10;;;;;;;12.88;100.00;99438.78;1693003;83;21028;-68
2022/10/30 05:07:30;;;;;;;6.83;2.95;;;;;;;12.88;100.00;99436.05;1707263;83;21002;-70
2022/10/30 05:09:58;;;;;;;7.17;3.00;;;;;;;12.95;100.00;99447.43;1700127;83;20996;-70
2022/10/30 05:12:25;;;;;;;5.85;2.80;;;;;;;12.97;100.00;99447.12;1700968;83;21722;-67
2022/10/30 05:14:56;;;;;;;7.15;4.22;;;;;;;12.91;100.00;99447.75;1711948;83;21010;-69
2022/10/30 05:17:22;;;;;;;6.28;2.98;;;;;;;12.87;100.00;99454.09;1699658;83;20961;-69
2022/10/30 05:19:49;;;;;;;6.22;2.52;;;;;;;12.83;100.00;99459.33;1699760;83;21014;-67
2022/10/30 05:22:17;;;;;;;9.65;3.12;;;;;;;12.89;100.00;99449.16;1689208;84;21578;-70
2022/10/30 05:24:44;;;;;;;12.00;2.90;;;;;;;12.90;100.00;99460.33;1700230;83;21035;-72
2022/10/30 05:27:10;;;;;;;7.75;3.05;;;;;;;12.85;100.00;99461.23;1685560;83;20993;-67
2022/10/30 05:29:37;;;;;;;7.83;2.72;;;;;;;12.83;100.00;99474.35;1704985;84;21064;-70
2022/10/30 05:32:04;;;;;;;;;;;;;;;12.83;100.00;99473.53;1710573;83;21962;-67
2022/10/30 05:34:41;;;;;;;11.88;3.17;;;;;;;12.87;100.00;99472.66;1683923;83;20159;-72
2022/10/30 05:37:09;;;;;;;6.55;2.47;;;;;;;12.85;100.00;99478.98;1690843;84;21019;-69
2022/10/30 05:39:37;;;;;;;9.35;3.05;;;;;;;12.85;100.00;99488.55;1709505;82;21609;-68
2022/10/30 05:42:06;;;;;;;9.70;3.25;;;;;;;12.83;100.00;99482.55;1697428;83;21005;-70
2022/10/30 05:44:34;;;;;;;7.15;2.85;;;;;;;12.79;100.00;99484.23;1707332;83;21107;-68
2022/10/30 05:47:01;;;;;;;7.72;2.55;;;;;;;12.84;100.00;99491.56;1685641;84;21474;-68
2022/10/30 05:49:29;;;;;;;6.97;2.77;;;;;;;12.92;100.00;99495.02;1710720;84;21063;-68
2022/10/30 05:51:57;;;;;;;7.58;3.00;;;;;;;12.94;100.00;99492.80;1710892;83;20968;-70
2022/10/30 05:54:25;;;;;;;5.92;2.55;;;;;;;12.91;100.00;99490.10;1707974;83;21067;-70
2022/10/30 05:56:53;;;;;;;5.95;3.20;;;;;;;12.87;100.00;99489.05;1708574;82;20963;-68
2022/10/30 05:59:19;;;;;;;;;;;;;;;12.92;100.00;99495.02;1709550;84;21103;-69
2022/10/30 06:01:46;;;;;;;9.20;3.13;;;;;;;12.98;100.00;99500.12;1710988;83;20174;-70
2022/10/30 06:04:13;;;;;;;8.10;3.35;;;;;;;12.97;100.00;99504.50;1713355;82;21599;-69
2022/10/30 06:06:40;;;;;;;8.38;3.25;;;;;;;12.98;100.00;99514.33;1686443;83;21024;-68
2022/10/30 06:09:08;;;;;;;6.05;3.30;;;;;;;12.97;100.00;99500.40;1709475;83;21025;-69
2022/10/30 06:11:43;;;;;;;6.85;2.70;;;;;;;12.94;100.00;99504.53;1656268;83;21006;-67
2022/10/30 06:14:11;;;;;;;5.10;2.62;;;;;;;12.95;100.00;99501.26;1702137;83;21055;-67
2022/10/30 06:16:40;;;;;;;4.40;2.22;;;;;;;13.01;100.00;99506.91;1705736;83;21012;-67
2022/10/30 06:19:09;;;;;;;7.47;2.60;;;;;;;13.02;100.00;99504.99;1700647;83;21119;-69
2022/10/30 06:21:35;;;;;;;4.70;2.75;;;;;;;12.98;100.00;99511.05;1709848;82;21021;-68
2022/10/30 06:24:11;;;;;;;5.95;2.52;;;;;;;12.97;100.00;99503.13;1705632;82;21078;-67
2022/10/30 06:26:40;;;;;;;7.50;2.17;;;;;;;12.94;100.00;99514.65;1700518;82;20979;-68
2022/10/30 06:29:09;;;;;;;8.50;2.50;;;;;;;12.97;100.00;99523.63;1704473;82;21127;-66
2022/10/30 06:34:12;;;;;;;5.83;2.13;;;;;;;13.04;100.00;99515.88;1801903;77;23773;-69
2022/10/30 06:36:41;;;;;;;6.33;2.40;;;;;;;12.91;100.00;99511.14;1781583;80;21486;-68
2022/10/30 06:39:07;;;;;;;;;;;;;;;12.87;100.00;99508.73;1755362;80;21049;-68
2022/10/30 06:41:39;;;;;;;7.53;1.92;;;;;;;12.83;100.00;99505.77;1778311;80;20109;-68
2022/10/30 06:44:13;;;;;;;5.75;2.30;;;;;;;12.80;100.00;99504.17;1716649;80;21874;-68
2022/10/30 06:46:39;;;;;;;6.17;2.47;;;;;;;12.84;100.00;99513.41;1721387;80;20986;-66
2022/10/30 06:49:06;;;;;;;6.60;2.40;;;;;;;12.84;100.00;99512.05;1777893;80;21656;-68
2022/10/30 06:51:32;;;;;;;;;;;;;;;12.82;100.00;99500.03;1781467;80;20951;-66
2022/10/30 06:54:00;;;;;;;5.87;2.00;;;;;;;12.79;100.00;99510.18;1751176;80;20101;-70
2022/10/30 06:56:40;;;;;;;8.88;2.30;;;;;;;12.73;100.00;99503.71;1778037;80;20971;-66
2022/10/30 06:59:34;;;;;;;7.08;2.05;;;;;;;12.80;100.00;99504.17;1583862;81;71260;-73
2022/10/30 07:02:20;;;;;;;5.62;1.98;;;;;;;12.78;100.00;99511.86;1624381;88;21695;-78
2022/10/30 07:04:50;;;;;;;4.60;1.72;;;;;;;12.73;100.00;99510.53;1618683;87;21088;-79
2022/10/30 07:07:17;;;;;;;5.78;1.50;;;;;;;12.71;100.00;99509.48;1639884;87;21048;-75
2022/10/30 07:09:45;;;;;;;4.20;1.32;;;;;;;12.73;100.00;99506.44;1628034;86;21154;-78
2022/10/30 07:12:12;;;;;;;4.22;1.20;;;;;;;12.81;100.00;99503.89;1626610;87;21573;-76
2022/10/30 07:14:56;;;;;;;7.92;1.47;;;;;;;12.82;100.00;99504.71;1568081;91;21183;-71
2022/10/30 07:17:32;;;;;;;5.97;1.47;;;;;;;12.79;100.00;99510.18;1583973;88;21111;-77
2022/10/30 07:20:00;;;;;;;5.15;1.30;;;;;;;12.77;100.00;99513.77;1598707;88;21103;-78
2022/10/30 07:22:27;;;;;;;6.22;1.42;;;;;;;12.74;100.00;99523.92;1587596;88;21079;-76
2022/10/30 07:24:55;;;;;;;5.33;1.32;;;;;;;12.73;100.00;99520.91;1645571;86;21067;-76
2022/10/30 07:27:48;;;;;;;5.60;1.50;;;;;;;12.79;100.00;99515.64;1624260;85;21100;-78
2022/10/30 07:30:34;;;;;;;4.17;1.20;;;;;;;12.78;100.00;99520.87;1625557;87;21016;-73
2022/10/30 07:33:08;;;;;;;4.08;1.30;;;;;;;12.77;100.00;99517.87;1608385;88;21095;-77
2022/10/30 07:36:01;;;;;;;5.90;1.30;;;;;;;12.77;100.00;99516.50;1620280;88;21575;-79
2022/10/30 07:38:30;;;;;;;4.72;1.25;;;;;;;12.79;100.00;99514.28;1615279;86;21121;-77
2022/10/30 07:40:58;;;;;;;6.87;0.80;;;;;;;12.80;100.00;99515.91;1582284;87;21531;-74
2022/10/30 07:43:27;;;;;;;3.58;0.93;;;;;;;12.88;100.00;99509.00;1627429;87;21151;-75
2022/10/30 07:46:13;;;;;;;5.15;0.93;;;;;;;12.86;100.00;99516.10;1617666;86;21591;-75
2022/10/30 07:48:47;;;;;;;5.12;1.30;;;;;;;12.76;100.00;99506.67;1620672;86;21083;-73
2022/10/30 07:51:32;;;;;;;4.10;1.05;;;;;;;12.70;100.00;99516.04;1618287;86;21051;-78
2022/10/30 07:54:00;;;;;;;5.90;0.82;;;;;;;12.64;100.00;99519.13;1588956;86;21171;-73
2022/10/30 07:56:28;;;;;;;5.25;0.90;;;;;;;12.62;100.00;99509.02;1620292;86;21557;-74
2022/10/30 07:58:54;;;;;;;6.30;0.90;;;;;;;12.68;100.00;99514.13;1619912;86;21160;-76
2022/10/30 08:01:42;;;;;;;5.15;1.20;;;;;;;12.79;100.00;99514.83;1643265;86;21083;-75
2022/10/30 08:04:12;;;;;;;4.87;1.12;;;;;;;12.80;100.00;99517.83;1616798;86;21800;-76
2022/10/30 08:06:40;;;;;;;4.40;1.30;;;;;;;12.79;100.00;99508.00;1627793;88;21092;-80
2022/10/30 08:09:07;;;;;;;3.33;1.10;;;;;;;12.79;100.00;99523.84;1621356;86;21195;-76
2022/10/30 08:11:35;;;;;;;6.10;1.30;;;;;;;12.78;100.00;99509.12;1609688;88;21139;-80
2022/10/30 08:14:03;;;;;;;5.95;1.35;;;;;;;12.77;100.00;99521.97;1596478;87;21590;-78
2022/10/30 08:16:29;;;;;;;5.33;1.75;;;;;;;12.86;100.00;99509.82;1659678;86;21043;-76
2022/10/30 08:18:56;;;;;;;4.95;1.07;;;;;;;12.87;100.00;99524.57;1636688;85;21693;-73
2022/10/30 08:21:24;;;;;;;6.78;1.20;;;;;;;12.82;100.00;99529.30;1634802;85;21028;-77
2022/10/30 08:24:02;;;;;;;4.08;1.20;;;;;;;12.77;100.00;99534.80;1631395;85;21660;-77
2022/10/30 08:26:30;;;;;;;7.87;1.70;;;;;;;12.77;100.00;99530.16;1624266;87;21103;-72
2022/10/30 08:28:57;;;;;;;4.47;1.10;;;;;;;12.83;100.00;99545.92;1636228;86;21931;-78
2022/10/30 08:31:24;;;;;;;3.92;1.17;;;;;;;12.93;100.00;99533.53;1620888;86;21594;-76
2022/10/30 08:34:04;;;;;;;6.40;1.27;;;;;;;12.96;100.00;99536.50;1607630;86;21159;-74
2022/10/30 08:36:36;;;;;;;4.85;1.30;;;;;;;12.96;100.00;99538.41;1624088;86;21550;-78
2022/10/30 08:39:03;;;;;;;4.80;1.07;;;;;;;12.94;100.00;99529.13;1630621;85;21179;-72
2022/10/30 08:41:44;;;;;;;6.10;1.17;;;;;;;12.93;100.00;99539.78;1622023;88;21095;-76
2022/10/30 08:44:10;;;;;;;3.20;0.90;;;;;;;12.90;100.00;99540.92;1603103;88;21709;-73
2022/10/30 08:46:56;;;;;;;4.42;1.10;;;;;;;12.88;100.00;99534.41;1621431;86;21063;-74
2022/10/30 08:49:23;;;;;;;5.35;1.12;;;;;;;12.91;100.00;99533.00;1624415;86;21152;-76
2022/10/30 08:51:52;;;;;;;4.03;1.00;;;;;;;12.95;100.00;99525.84;1625003;88;21573;-72
2022/10/30 08:54:18;;;;;;;6.45;1.62;;;;;;;12.94;100.00;99538.69;1622811;87;21096;-72
2022/10/30 08:56:45;;;;;;;4.78;1.40;;;;;;;12.94;100.00;99547.44;1624292;88;21075;-73
2022/10/30 08:59:12;;;;;;;4.20;1.40;;;;;;;12.94;100.00;99542.79;1623987;88;21111;-73
2022/10/30 09:01:39;;;;;;;5.45;1.30;;;;;;;12.96;100.00;99543.33;1618102;88;21508;-72
2022/10/30 09:04:17;;;;;;;;;;;;;;;13.00;100.00;99534.00;1583421;90;21107;-75
2022/10/30 09:06:50;;;;;;;6.40;2.05;;;;;;;13.04;100.00;99539.11;1621767;87;20112;-73
2022/10/30 09:09:18;;;;;;;7.72;2.27;;;;;;;12.97;100.00;99531.27;1623662;87;21078;-72
2022/10/30 09:11:47;;;;;;;5.30;1.25;;;;;;;12.97;100.00;99534.00;1643439;87;21731;-76
2022/10/30 09:14:14;;;;;;;9.28;1.77;;;;;;;13.03;100.00;99529.86;1636255;85;21150;-74
2022/10/30 09:16:40;;;;;;;;;;;;;;;13.07;100.00;99529.53;1627259;88;21605;-75
2022/10/30 09:19:10;;;;;;;7.17;2.45;;;;;;;13.12;100.00;99522.65;1624008;88;20132;-74
2022/10/30 09:21:36;;;;;;;7.75;2.05;;;;;;;13.19;100.00;99526.66;1621905;88;21065;-76
2022/10/30 09:24:04;;;;;;;8.55;2.87;;;;;;;13.21;100.00;99518.17;1627242;87;21130;-72
2022/10/30 09:26:33;;;;;;;11.80;2.72;;;;;;;13.17;100.00;99519.86;1603560;87;21054;-77
2022/10/30 09:29:07;;;;;;;9.45;2.87;;;;;;;13.11;100.00;99524.56;1605608;87;21714;-72
2022/10/30 09:31:52;;;;;;;7.70;2.83;;;;;;;13.10;100.00;99525.70;1613340;89;21562;-72
2022/10/30 09:34:19;;;;;;;6.35;1.67;;;;;;;13.08;100.00;99522.39;1621857;88;21160;-72
2022/10/30 09:36:48;;;;;;;3.95;1.17;;;;;;;13.16;100.00;99528.61;1620761;87;21043;-74
2022/10/30 09:39:15;;;;;;;7.30;1.30;;;;;;;13.20;100.00;99526.10;1593757;87;21166;-76
2022/10/30 09:42:09;;;;;;;5.17;1.45;;;;;;;13.16;100.00;99527.24;1617536;87;21036;-74
2022/10/30 09:45:24;;;;;;;5.97;1.62;;;;;;;13.17;100.00;99526.14;1619788;87;21086;-77
2022/10/30 09:48:02;;;;;;;5.87;2.02;;;;;;;13.16;100.00;99526.43;1632040;85;21070;-73
2022/10/30 09:50:42;;;;;;;4.67;1.35;;;;;;;13.15;100.00;99530.26;1614663;88;21030;-73
2022/10/30 09:53:56;;;;;;;4.87;1.22;;;;;;;13.18;100.00;99526.38;1595779;88;21084;-73
2022/10/30 09:56:51;;;;;;;10.60;1.98;;;;;;;13.27;100.00;99515.63;1624195;88;20986;-76
2022/10/30 09:59:42;;;;;;;6.55;2.02;;;;;;;13.22;100.00;99512.39;1624671;87;21053;-77
2022/10/30 10:02:24;;;;;;;6.75;2.08;;;;;;;13.22;100.00;99512.39;1609210;88;21685;-71
2022/10/30 10:04:55;;;;;;;8.20;3.80;;;;;;;13.22;100.00;99513.77;1604359;87;21044;-73
2022/10/30 10:07:31;;;;;;;5.15;1.75;;;;;;;13.25;100.00;99515.11;1607590;88;21470;-76
2022/10/30 10:10:08;;;;;;;7.37;2.47;;;;;;;13.34;100.00;99514.70;1606811;88;21088;-72
2022/10/30 10:12:45;;;;;;;8.15;3.27;;;;;;;13.41;100.00;99512.41;1612150;87;21011;-72
2022/10/30 10:15:44;;;;;;;7.85;3.42;;;;;;;13.39;100.00;99509.95;1610877;87;21030;-71
2022/10/30 10:18:19;;;;;;;8.80;2.90;;;;;;;13.42;100.00;99511.31;1611697;87;21082;-74
2022/10/30 10:20:50;;;;;;;7.25;3.17;;;;;;;13.44;100.00;99514.00;1606658;87;21022;-72
2022/10/30 10:23:21;;;;;;;9.30;4.58;;;;;;;13.48;100.00;99521.61;1621617;87;21103;-73
2022/10/30 10:25:52;;;;;;;11.50;4.90;;;;;;;13.51;100.00;99519.64;1617953;87;21049;-76
2022/10/30 10:28:39;;;;;;;5.80;2.40;;;;;;;13.60;100.00;99521.98;1616606;87;21093;-71
2022/10/30 10:31:11;;;;;;;5.78;2.00;;;;;;;13.65;100.00;99513.14;1614336;89;21042;-76
2022/10/30 10:33:52;;;;;;;6.40;2.22;;;;;;;13.57;100.00;99513.80;1619779;86;21645;-75
2022/10/30 10:36:46;;;;;;;7.17;3.00;;;;;;;13.47;100.00;99509.85;1580867;89;21036;-75
2022/10/30 10:39:36;;;;;;;10.90;2.90;;;;;;;13.39;100.00;99512.69;1592837;89;21143;-76
2022/10/30 10:42:23;;;;;;;7.70;2.00;;;;;;;13.36;100.00;99515.20;1608578;87;21008;-75
2022/10/30 10:45:07;;;;;;;5.05;1.75;;;;;;;13.29;100.00;99507.38;1611358;88;21062;-76
2022/10/30 10:48:03;;;;;;;5.50;1.72;;;;;;;13.26;100.00;99503.05;1609408;88;21085;-76
2022/10/30 10:50:37;;;;;;;6.58;2.02;;;;;;;13.25;100.00;99504.97;1610855;87;20977;-76
2022/10/30 10:53:13;;;;;;;3.27;1.20;;;;;;;13.23;100.00;99500.36;1550531;91;21067;-77
2022/10/30 10:55:42;;;;;;;8.65;1.80;;;;;;;13.22;100.00;99497.36;1576901;89;21052;-81
2022/10/30 10:58:35;;;;;;;3.05;1.25;;;;;;;13.24;100.00;99501.18;1591590;90;21565;-76
2022/10/30 11:01:02;;;;;;;7.62;2.40;;;;;;;13.32;100.00;99501.31;1591781;88;21491;-77
2022/10/30 11:03:55;;;;;;;6.25;2.20;;;;;;;13.36;100.00;99490.05;1581807;89;21124;-77
2022/10/30 11:06:27;;;;;;;4.83;1.87;;;;;;;13.42;100.00;99493.54;1605254;87;21558;-77
2022/10/30 11:09:18;;;;;;;6.50;2.20;;;;;;;13.42;100.00;99488.89;1608627;88;21585;-77
2022/10/30 11:11:49;;;;;;;7.72;2.60;;;;;;;13.38;100.00;99476.91;1604304;89;21520;-76
2022/10/30 11:14:27;;;;;;;5.10;1.62;;;;;;;13.38;100.00;99483.75;1608054;88;21107;-76
2022/10/30 11:17:18;;;;;;;5.37;1.72;;;;;;;13.40;100.00;99477.42;1612809;88;21008;-77
2022/10/30 11:19:44;;;;;;;7.80;1.90;;;;;;;13.40;100.00;99480.15;1595044;87;21506;-74
2022/10/30 11:22:18;;;;;;;6.97;2.02;;;;;;;13.49;100.00;99474.84;1610714;87;21008;-77
2022/10/30 11:24:46;;;;;;;6.40;2.22;;;;;;;13.51;100.00;99475.34;1600991;88;21079;-76
2022/10/30 11:27:29;;;;;;;7.08;2.00;;;;;;;13.48;100.00;99485.51;1612520;87;21021;-77
2022/10/30 11:30:00;;;;;;;8.15;2.55;;;;;;;13.46;100.00;99477.59;1613237;87;21040;-77
2022/10/30 11:32:32;;;;;;;32.13;24.72;;;;;;;13.43;100.00;99472.72;1605675;87;21048;-77
2022/10/30 11:35:08;;;;;;;8.23;4.65;;;;;;;13.44;100.00;99468.88;1606961;87;21050;-75
2022/10/30 11:37:37;;;;;;;23.07;20.43;;;;;;;13.50;100.00;99468.81;1606918;87;20993;-76
2022/10/30 11:40:19;;;;;;;25.45;19.77;;;;;;;13.60;100.00;99466.73;1579987;87;21474;-77
2022/10/30 11:42:50;;;;;;;13.10;1.90;;;;;;;13.65;100.00;99463.08;1582221;87;21135;-77
2022/10/30 11:45:30;;;;;;;4.97;1.35;;;;;;;13.70;100.00;99458.91;1609596;87;21125;-77
2022/10/30 11:47:58;;;;;;;6.28;2.00;;;;;;;13.67;100.00;99462.25;1585516;88;21151;-77
2022/10/30 11:50:28;;;;;;;4.80;1.75;;;;;;;13.65;100.00;99465.27;1614450;87;21051;-76
2022/10/30 11:53:14;;;;;;;6.35;2.02;;;;;;;13.61;100.00;99462.88;1609557;88;21655;-76